sensor_id;sensor_type;location;lat;lon;timestamp;P1;durP1;ratioP1;P2;durP2;ratioP2
34836;SDS011;21053;50.848;4.652;2022-07-11T00:02:28;3.33;;;2.20;;
34836;SDS011;21053;50.848;4.652;2022-07-11T00:04:54;6.90;;;2.67;;
34836;SDS011;21053;50.848;4.652;2022-07-11T00:07:23;3.72;;;2.22;;
34836;SDS011;21053;50.848;4.652;2022-07-11T00:09:49;3.85;;;2.38;;
34836;SDS011;21053;50.848;4.652;2022-07-11T00:12:20;4.13;;;2.55;;
34836;SDS011;21053;50.848;4.652;2022-07-11T00:14:47;11.98;;;2.45;;
34836;SDS011;21053;50.848;4.652;2022-07-11T00:17:16;3.35;;;2.33;;
34836;SDS011;21053;50.848;4.652;2022-07-11T00:22:14;3.90;;;2.50;;
34836;SDS011;21053;50.848;4.652;2022-07-11T00:24:40;7.88;;;2.50;;
34836;SDS011;21053;50.848;4.652;2022-07-11T00:27:08;3.97;;;2.38;;
34836;SDS011;21053;50.848;4.652;2022-07-11T00:29:35;3.90;;;2.30;;
34836;SDS011;21053;50.848;4.652;2022-07-11T00:32:01;7.35;;;2.40;;
34836;SDS011;21053;50.848;4.652;2022-07-11T00:34:30;4.35;;;2.25;;
34836;SDS011;21053;50.848;4.652;2022-07-11T00:39:29;5.57;;;2.33;;
34836;SDS011;21053;50.848;4.652;2022-07-11T00:47:04;7.45;;;2.30;;
34836;SDS011;21053;50.848;4.652;2022-07-11T00:49:33;4.15;;;2.42;;
34836;SDS011;21053;50.848;4.652;2022-07-11T00:54:30;3.72;;;2.25;;
34836;SDS011;21053;50.848;4.652;2022-07-11T00:56:56;3.63;;;2.03;;
34836;SDS011;21053;50.848;4.652;2022-07-11T01:01:53;8.35;;;2.45;;
34836;SDS011;21053;50.848;4.652;2022-07-11T01:06:52;3.28;;;2.20;;
34836;SDS011;21053;50.848;4.652;2022-07-11T01:09:18;3.28;;;2.20;;
34836;SDS011;21053;50.848;4.652;2022-07-11T01:11:47;4.15;;;2.50;;
34836;SDS011;21053;50.848;4.652;2022-07-11T01:14:14;7.57;;;2.42;;
34836;SDS011;21053;50.848;4.652;2022-07-11T01:16:43;4.93;;;2.25;;
34836;SDS011;21053;50.848;4.652;2022-07-11T01:19:10;6.10;;;2.20;;
34836;SDS011;21053;50.848;4.652;2022-07-11T01:21:36;3.95;;;2.65;;
34836;SDS011;21053;50.848;4.652;2022-07-11T01:24:06;6.43;;;2.78;;
34836;SDS011;21053;50.848;4.652;2022-07-11T01:26:33;4.00;;;2.53;;
34836;SDS011;21053;50.848;4.652;2022-07-11T01:29:11;2.90;;;2.25;;
34836;SDS011;21053;50.848;4.652;2022-07-11T01:31:37;5.15;;;2.55;;
34836;SDS011;21053;50.848;4.652;2022-07-11T01:34:06;6.03;;;2.50;;
34836;SDS011;21053;50.848;4.652;2022-07-11T01:36:35;3.42;;;2.40;;
34836;SDS011;21053;50.848;4.652;2022-07-11T01:39:02;5.82;;;2.33;;
34836;SDS011;21053;50.848;4.652;2022-07-11T01:41:35;6.82;;;2.72;;
34836;SDS011;21053;50.848;4.652;2022-07-11T01:44:04;4.75;;;2.33;;
34836;SDS011;21053;50.848;4.652;2022-07-11T01:46:31;4.95;;;2.33;;
34836;SDS011;21053;50.848;4.652;2022-07-11T01:48:57;5.60;;;2.55;;
34836;SDS011;21053;50.848;4.652;2022-07-11T01:51:24;3.35;;;2.42;;
34836;SDS011;21053;50.848;4.652;2022-07-11T01:53:53;6.60;;;2.65;;
34836;SDS011;21053;50.848;4.652;2022-07-11T01:56:23;7.60;;;2.75;;
34836;SDS011;21053;50.848;4.652;2022-07-11T01:58:54;6.90;;;2.35;;
34836;SDS011;21053;50.848;4.652;2022-07-11T02:01:22;7.72;;;2.50;;
34836;SDS011;21053;50.848;4.652;2022-07-11T02:03:50;3.78;;;2.45;;
34836;SDS011;21053;50.848;4.652;2022-07-11T02:11:13;4.53;;;2.55;;
34836;SDS011;21053;50.848;4.652;2022-07-11T02:13:41;5.82;;;2.78;;
34836;SDS011;21053;50.848;4.652;2022-07-11T02:18:39;6.82;;;2.55;;
34836;SDS011;21053;50.848;4.652;2022-07-11T02:21:04;6.43;;;2.95;;
34836;SDS011;21053;50.848;4.652;2022-07-11T02:23:33;3.92;;;2.88;;
34836;SDS011;21053;50.848;4.652;2022-07-11T02:26:00;4.53;;;2.70;;
34836;SDS011;21053;50.848;4.652;2022-07-11T02:28:27;3.58;;;2.50;;
34836;SDS011;21053;50.848;4.652;2022-07-11T02:30:53;5.32;;;2.42;;
34836;SDS011;21053;50.848;4.652;2022-07-11T02:33:19;3.78;;;3.03;;
34836;SDS011;21053;50.848;4.652;2022-07-11T02:35:52;6.18;;;2.88;;
34836;SDS011;21053;50.848;4.652;2022-07-11T02:38:19;5.38;;;2.70;;
34836;SDS011;21053;50.848;4.652;2022-07-11T02:40:46;6.75;;;2.60;;
34836;SDS011;21053;50.848;4.652;2022-07-11T02:45:44;3.30;;;2.55;;
34836;SDS011;21053;50.848;4.652;2022-07-11T02:48:16;4.05;;;3.00;;
34836;SDS011;21053;50.848;4.652;2022-07-11T02:50:44;8.00;;;2.60;;
34836;SDS011;21053;50.848;4.652;2022-07-11T02:53:10;6.97;;;3.03;;
34836;SDS011;21053;50.848;4.652;2022-07-11T02:55:37;5.07;;;2.47;;
34836;SDS011;21053;50.848;4.652;2022-07-11T02:58:03;6.03;;;2.60;;
34836;SDS011;21053;50.848;4.652;2022-07-11T03:00:32;4.63;;;2.50;;
34836;SDS011;21053;50.848;4.652;2022-07-11T03:03:00;6.50;;;2.60;;
34836;SDS011;21053;50.848;4.652;2022-07-11T03:05:27;7.85;;;2.63;;
34836;SDS011;21053;50.848;4.652;2022-07-11T03:07:53;3.08;;;2.25;;
34836;SDS011;21053;50.848;4.652;2022-07-11T03:10:20;3.85;;;2.47;;
34836;SDS011;21053;50.848;4.652;2022-07-11T03:12:51;3.83;;;2.50;;
34836;SDS011;21053;50.848;4.652;2022-07-11T03:15:18;4.00;;;2.75;;
34836;SDS011;21053;50.848;4.652;2022-07-11T03:17:45;5.97;;;2.80;;
34836;SDS011;21053;50.848;4.652;2022-07-11T03:22:41;3.88;;;2.80;;
34836;SDS011;21053;50.848;4.652;2022-07-11T03:25:09;4.25;;;2.78;;
34836;SDS011;21053;50.848;4.652;2022-07-11T03:27:38;4.60;;;2.60;;
34836;SDS011;21053;50.848;4.652;2022-07-11T03:32:35;7.10;;;2.70;;
34836;SDS011;21053;50.848;4.652;2022-07-11T03:37:52;4.68;;;2.75;;
34836;SDS011;21053;50.848;4.652;2022-07-11T03:42:49;3.65;;;2.60;;
34836;SDS011;21053;50.848;4.652;2022-07-11T03:45:21;8.82;;;2.85;;
34836;SDS011;21053;50.848;4.652;2022-07-11T03:47:53;3.90;;;2.63;;
34836;SDS011;21053;50.848;4.652;2022-07-11T03:50:22;4.20;;;2.72;;
34836;SDS011;21053;50.848;4.652;2022-07-11T03:52:54;4.10;;;2.67;;
34836;SDS011;21053;50.848;4.652;2022-07-11T03:55:20;3.08;;;2.58;;
34836;SDS011;21053;50.848;4.652;2022-07-11T03:57:49;4.22;;;3.05;;
34836;SDS011;21053;50.848;4.652;2022-07-11T04:02:46;6.40;;;2.38;;
34836;SDS011;21053;50.848;4.652;2022-07-11T04:07:42;3.65;;;2.65;;
34836;SDS011;21053;50.848;4.652;2022-07-11T04:10:09;5.60;;;2.88;;
34836;SDS011;21053;50.848;4.652;2022-07-11T04:12:37;3.33;;;2.60;;
34836;SDS011;21053;50.848;4.652;2022-07-11T04:17:33;6.97;;;3.05;;
34836;SDS011;21053;50.848;4.652;2022-07-11T04:20:00;5.57;;;2.80;;
34836;SDS011;21053;50.848;4.652;2022-07-11T04:22:28;4.72;;;2.95;;
34836;SDS011;21053;50.848;4.652;2022-07-11T04:27:43;8.20;;;2.97;;
34836;SDS011;21053;50.848;4.652;2022-07-11T04:30:09;4.18;;;2.90;;
34836;SDS011;21053;50.848;4.652;2022-07-11T04:37:35;8.10;;;3.05;;
34836;SDS011;21053;50.848;4.652;2022-07-11T04:40:04;16.45;;;3.50;;
34836;SDS011;21053;50.848;4.652;2022-07-11T04:45:01;5.95;;;2.97;;
34836;SDS011;21053;50.848;4.652;2022-07-11T04:47:26;5.80;;;2.67;;
34836;SDS011;21053;50.848;4.652;2022-07-11T04:49:52;7.07;;;3.10;;
34836;SDS011;21053;50.848;4.652;2022-07-11T04:52:21;4.47;;;3.25;;
34836;SDS011;21053;50.848;4.652;2022-07-11T04:54:53;8.85;;;3.33;;
34836;SDS011;21053;50.848;4.652;2022-07-11T04:59:49;6.22;;;3.70;;
34836;SDS011;21053;50.848;4.652;2022-07-11T05:02:15;4.85;;;4.00;;
34836;SDS011;21053;50.848;4.652;2022-07-11T05:04:45;7.75;;;4.38;;
34836;SDS011;21053;50.848;4.652;2022-07-11T05:07:14;6.18;;;3.22;;
34836;SDS011;21053;50.848;4.652;2022-07-11T05:09:43;6.53;;;3.72;;
34836;SDS011;21053;50.848;4.652;2022-07-11T05:12:09;5.85;;;3.80;;
34836;SDS011;21053;50.848;4.652;2022-07-11T05:14:35;9.05;;;3.80;;
34836;SDS011;21053;50.848;4.652;2022-07-11T05:17:01;5.10;;;3.33;;
34836;SDS011;21053;50.848;4.652;2022-07-11T05:21:57;7.88;;;3.95;;
34836;SDS011;21053;50.848;4.652;2022-07-11T05:27:10;8.88;;;3.55;;
34836;SDS011;21053;50.848;4.652;2022-07-11T05:29:39;5.03;;;3.85;;
34836;SDS011;21053;50.848;4.652;2022-07-11T05:32:05;7.28;;;4.35;;
34836;SDS011;21053;50.848;4.652;2022-07-11T05:34:34;5.40;;;3.50;;
34836;SDS011;21053;50.848;4.652;2022-07-11T05:37:00;6.47;;;4.13;;
34836;SDS011;21053;50.848;4.652;2022-07-11T05:39:29;7.32;;;3.70;;
34836;SDS011;21053;50.848;4.652;2022-07-11T05:44:24;7.20;;;4.35;;
34836;SDS011;21053;50.848;4.652;2022-07-11T05:46:51;9.05;;;4.82;;
34836;SDS011;21053;50.848;4.652;2022-07-11T05:49:16;12.82;;;5.60;;
34836;SDS011;21053;50.848;4.652;2022-07-11T05:51:45;8.55;;;5.50;;
34836;SDS011;21053;50.848;4.652;2022-07-11T05:54:14;16.63;;;6.10;;
34836;SDS011;21053;50.848;4.652;2022-07-11T05:59:13;12.48;;;6.78;;
34836;SDS011;21053;50.848;4.652;2022-07-11T06:01:39;16.70;;;7.47;;
34836;SDS011;21053;50.848;4.652;2022-07-11T06:04:08;16.73;;;8.63;;
34836;SDS011;21053;50.848;4.652;2022-07-11T06:09:06;10.90;;;6.72;;
34836;SDS011;21053;50.848;4.652;2022-07-11T06:11:43;13.35;;;7.15;;
34836;SDS011;21053;50.848;4.652;2022-07-11T06:14:11;14.52;;;7.25;;
34836;SDS011;21053;50.848;4.652;2022-07-11T06:16:40;21.13;;;9.40;;
34836;SDS011;21053;50.848;4.652;2022-07-11T06:19:12;23.42;;;11.45;;
34836;SDS011;21053;50.848;4.652;2022-07-11T06:21:41;24.70;;;11.55;;
34836;SDS011;21053;50.848;4.652;2022-07-11T06:24:10;31.50;;;12.00;;
34836;SDS011;21053;50.848;4.652;2022-07-11T06:29:28;21.23;;;11.40;;
34836;SDS011;21053;50.848;4.652;2022-07-11T06:31:54;20.50;;;10.48;;
34836;SDS011;21053;50.848;4.652;2022-07-11T06:34:23;19.92;;;10.18;;
34836;SDS011;21053;50.848;4.652;2022-07-11T06:39:21;18.83;;;10.25;;
34836;SDS011;21053;50.848;4.652;2022-07-11T06:41:46;15.52;;;8.88;;
34836;SDS011;21053;50.848;4.652;2022-07-11T06:44:15;19.35;;;9.32;;
34836;SDS011;21053;50.848;4.652;2022-07-11T06:49:13;20.42;;;9.82;;
34836;SDS011;21053;50.848;4.652;2022-07-11T06:54:10;19.33;;;8.95;;
34836;SDS011;21053;50.848;4.652;2022-07-11T06:56:36;15.77;;;8.55;;
34836;SDS011;21053;50.848;4.652;2022-07-11T06:59:02;17.58;;;8.25;;
34836;SDS011;21053;50.848;4.652;2022-07-11T07:01:31;18.27;;;7.43;;
34836;SDS011;21053;50.848;4.652;2022-07-11T07:03:59;13.60;;;7.60;;
34836;SDS011;21053;50.848;4.652;2022-07-11T07:06:27;13.00;;;6.82;;
34836;SDS011;21053;50.848;4.652;2022-07-11T07:13:52;18.58;;;7.95;;
34836;SDS011;21053;50.848;4.652;2022-07-11T07:16:18;13.45;;;5.97;;
34836;SDS011;21053;50.848;4.652;2022-07-11T07:18:45;16.30;;;5.45;;
34836;SDS011;21053;50.848;4.652;2022-07-11T07:21:16;15.35;;;5.88;;
34836;SDS011;21053;50.848;4.652;2022-07-11T07:23:43;10.80;;;5.32;;
34836;SDS011;21053;50.848;4.652;2022-07-11T07:26:10;20.75;;;5.45;;
34836;SDS011;21053;50.848;4.652;2022-07-11T07:28:36;20.63;;;5.30;;
34836;SDS011;21053;50.848;4.652;2022-07-11T07:31:05;13.48;;;5.63;;
34836;SDS011;21053;50.848;4.652;2022-07-11T07:33:33;11.27;;;5.22;;
34836;SDS011;21053;50.848;4.652;2022-07-11T07:38:58;9.73;;;4.45;;
34836;SDS011;21053;50.848;4.652;2022-07-11T07:41:28;13.27;;;4.95;;
34836;SDS011;21053;50.848;4.652;2022-07-11T07:46:24;9.50;;;4.47;;
34836;SDS011;21053;50.848;4.652;2022-07-11T07:48:53;13.00;;;4.35;;
34836;SDS011;21053;50.848;4.652;2022-07-11T07:51:22;12.68;;;4.53;;
34836;SDS011;21053;50.848;4.652;2022-07-11T07:53:50;11.77;;;5.10;;
34836;SDS011;21053;50.848;4.652;2022-07-11T07:56:18;8.27;;;4.40;;
34836;SDS011;21053;50.848;4.652;2022-07-11T07:58:47;10.65;;;4.18;;
34836;SDS011;21053;50.848;4.652;2022-07-11T08:01:18;13.57;;;4.32;;
34836;SDS011;21053;50.848;4.652;2022-07-11T08:04:06;8.45;;;4.25;;
34836;SDS011;21053;50.848;4.652;2022-07-11T08:06:45;8.35;;;3.55;;
34836;SDS011;21053;50.848;4.652;2022-07-11T08:09:12;8.70;;;3.85;;
34836;SDS011;21053;50.848;4.652;2022-07-11T08:11:41;8.93;;;3.33;;
34836;SDS011;21053;50.848;4.652;2022-07-11T08:14:09;6.47;;;3.55;;
34836;SDS011;21053;50.848;4.652;2022-07-11T08:16:38;6.00;;;3.38;;
34836;SDS011;21053;50.848;4.652;2022-07-11T08:19:07;9.45;;;3.45;;
34836;SDS011;21053;50.848;4.652;2022-07-11T08:24:04;6.63;;;3.20;;
34836;SDS011;21053;50.848;4.652;2022-07-11T08:26:33;7.88;;;3.22;;
34836;SDS011;21053;50.848;4.652;2022-07-11T08:29:02;8.77;;;3.22;;
34836;SDS011;21053;50.848;4.652;2022-07-11T08:31:29;7.20;;;2.60;;
34836;SDS011;21053;50.848;4.652;2022-07-11T08:33:57;9.98;;;3.28;;
34836;SDS011;21053;50.848;4.652;2022-07-11T08:36:28;8.90;;;3.20;;
34836;SDS011;21053;50.848;4.652;2022-07-11T08:41:24;8.60;;;3.13;;
34836;SDS011;21053;50.848;4.652;2022-07-11T08:43:51;11.30;;;3.08;;
34836;SDS011;21053;50.848;4.652;2022-07-11T08:46:22;7.80;;;3.10;;
34836;SDS011;21053;50.848;4.652;2022-07-11T08:48:49;7.40;;;3.00;;
34836;SDS011;21053;50.848;4.652;2022-07-11T08:51:16;8.35;;;3.20;;
34836;SDS011;21053;50.848;4.652;2022-07-11T08:53:42;6.93;;;2.83;;
34836;SDS011;21053;50.848;4.652;2022-07-11T08:56:13;7.45;;;2.78;;
34836;SDS011;21053;50.848;4.652;2022-07-11T08:58:50;10.50;;;3.78;;
34836;SDS011;21053;50.848;4.652;2022-07-11T09:03:49;9.32;;;2.42;;
34836;SDS011;21053;50.848;4.652;2022-07-11T09:06:16;8.80;;;3.42;;
34836;SDS011;21053;50.848;4.652;2022-07-11T09:08:45;5.57;;;2.20;;
34836;SDS011;21053;50.848;4.652;2022-07-11T09:11:13;9.18;;;2.80;;
34836;SDS011;21053;50.848;4.652;2022-07-11T09:13:38;6.38;;;2.28;;
34836;SDS011;21053;50.848;4.652;2022-07-11T09:16:06;5.70;;;2.30;;
34836;SDS011;21053;50.848;4.652;2022-07-11T09:18:34;6.30;;;2.40;;
34836;SDS011;21053;50.848;4.652;2022-07-11T09:21:10;8.10;;;2.50;;
34836;SDS011;21053;50.848;4.652;2022-07-11T09:23:57;8.18;;;2.55;;
34836;SDS011;21053;50.848;4.652;2022-07-11T09:26:48;3.60;;;2.10;;
34836;SDS011;21053;50.848;4.652;2022-07-11T09:29:17;5.30;;;2.88;;
34836;SDS011;21053;50.848;4.652;2022-07-11T09:31:45;5.63;;;2.25;;
34836;SDS011;21053;50.848;4.652;2022-07-11T09:34:14;9.13;;;2.33;;
34836;SDS011;21053;50.848;4.652;2022-07-11T09:39:26;3.35;;;2.08;;
34836;SDS011;21053;50.848;4.652;2022-07-11T09:41:56;2.97;;;1.88;;
34836;SDS011;21053;50.848;4.652;2022-07-11T09:44:23;6.53;;;2.30;;
34836;SDS011;21053;50.848;4.652;2022-07-11T09:46:54;3.88;;;1.73;;
34836;SDS011;21053;50.848;4.652;2022-07-11T09:49:36;4.88;;;2.05;;
34836;SDS011;21053;50.848;4.652;2022-07-11T09:52:12;2.95;;;1.70;;
34836;SDS011;21053;50.848;4.652;2022-07-11T09:54:58;7.60;;;2.33;;
34836;SDS011;21053;50.848;4.652;2022-07-11T10:02:36;5.47;;;2.00;;
34836;SDS011;21053;50.848;4.652;2022-07-11T10:05:02;10.82;;;2.20;;
34836;SDS011;21053;50.848;4.652;2022-07-11T10:07:31;4.18;;;1.80;;
34836;SDS011;21053;50.848;4.652;2022-07-11T10:10:01;12.57;;;2.28;;
34836;SDS011;21053;50.848;4.652;2022-07-11T10:12:32;6.78;;;2.00;;
34836;SDS011;21053;50.848;4.652;2022-07-11T10:28:35;4.68;;;1.45;;
34836;SDS011;21053;50.848;4.652;2022-07-11T10:31:22;6.05;;;1.55;;
34836;SDS011;21053;50.848;4.652;2022-07-11T10:37:07;7.68;;;1.73;;
34836;SDS011;21053;50.848;4.652;2022-07-11T10:39:36;5.18;;;1.60;;
34836;SDS011;21053;50.848;4.652;2022-07-11T10:42:03;2.80;;;1.25;;
34836;SDS011;21053;50.848;4.652;2022-07-11T10:44:47;2.63;;;1.42;;
34836;SDS011;21053;50.848;4.652;2022-07-11T10:47:33;4.32;;;1.40;;
34836;SDS011;21053;50.848;4.652;2022-07-11T10:50:26;2.53;;;1.40;;
34836;SDS011;21053;50.848;4.652;2022-07-11T10:53:08;3.08;;;1.35;;
34836;SDS011;21053;50.848;4.652;2022-07-11T10:58:32;5.38;;;1.42;;
34836;SDS011;21053;50.848;4.652;2022-07-11T11:01:10;5.32;;;1.67;;
34836;SDS011;21053;50.848;4.652;2022-07-11T11:03:41;4.68;;;1.35;;
34836;SDS011;21053;50.848;4.652;2022-07-11T11:06:09;7.55;;;1.77;;
34836;SDS011;21053;50.848;4.652;2022-07-11T11:08:42;3.72;;;1.30;;
34836;SDS011;21053;50.848;4.652;2022-07-11T11:16:40;6.93;;;1.40;;
34836;SDS011;21053;50.848;4.652;2022-07-11T11:22:04;4.20;;;1.73;;
34836;SDS011;21053;50.848;4.652;2022-07-11T11:24:44;4.97;;;1.90;;
34836;SDS011;21053;50.848;4.652;2022-07-11T11:29:54;4.32;;;1.50;;
34836;SDS011;21053;50.848;4.652;2022-07-11T11:32:28;6.60;;;2.10;;
34836;SDS011;21053;50.848;4.652;2022-07-11T11:37:24;2.60;;;1.65;;
34836;SDS011;21053;50.848;4.652;2022-07-11T11:39:57;5.38;;;1.95;;
34836;SDS011;21053;50.848;4.652;2022-07-11T11:42:31;2.55;;;1.85;;
34836;SDS011;21053;50.848;4.652;2022-07-11T11:45:03;5.40;;;2.00;;
34836;SDS011;21053;50.848;4.652;2022-07-11T11:47:35;4.35;;;1.95;;
34836;SDS011;21053;50.848;4.652;2022-07-11T11:52:36;5.97;;;2.65;;
34836;SDS011;21053;50.848;4.652;2022-07-11T11:55:03;4.10;;;2.30;;
34836;SDS011;21053;50.848;4.652;2022-07-11T11:57:29;4.93;;;2.13;;
34836;SDS011;21053;50.848;4.652;2022-07-11T12:00:01;2.45;;;2.17;;
34836;SDS011;21053;50.848;4.652;2022-07-11T12:02:28;3.38;;;2.10;;
34836;SDS011;21053;50.848;4.652;2022-07-11T12:04:58;4.07;;;2.58;;
34836;SDS011;21053;50.848;4.652;2022-07-11T12:07:32;9.95;;;2.65;;
34836;SDS011;21053;50.848;4.652;2022-07-11T12:10:01;4.28;;;2.40;;
34836;SDS011;21053;50.848;4.652;2022-07-11T12:12:29;6.80;;;3.28;;
34836;SDS011;21053;50.848;4.652;2022-07-11T12:15:32;5.88;;;2.63;;
34836;SDS011;21053;50.848;4.652;2022-07-11T12:18:18;8.10;;;3.00;;
34836;SDS011;21053;50.848;4.652;2022-07-11T12:20:45;10.93;;;2.72;;
34836;SDS011;21053;50.848;4.652;2022-07-11T12:23:13;8.23;;;2.58;;
34836;SDS011;21053;50.848;4.652;2022-07-11T12:28:15;5.72;;;2.28;;
34836;SDS011;21053;50.848;4.652;2022-07-11T12:30:41;4.03;;;2.85;;
34836;SDS011;21053;50.848;4.652;2022-07-11T12:33:13;6.78;;;2.72;;
34836;SDS011;21053;50.848;4.652;2022-07-11T12:41:19;5.45;;;2.58;;
34836;SDS011;21053;50.848;4.652;2022-07-11T12:43:49;6.18;;;2.28;;
34836;SDS011;21053;50.848;4.652;2022-07-11T12:46:35;3.35;;;2.38;;
34836;SDS011;21053;50.848;4.652;2022-07-11T12:51:37;5.97;;;2.33;;
34836;SDS011;21053;50.848;4.652;2022-07-11T12:56:37;4.15;;;2.13;;
34836;SDS011;21053;50.848;4.652;2022-07-11T12:59:04;3.03;;;2.30;;
34836;SDS011;21053;50.848;4.652;2022-07-11T13:01:34;2.78;;;2.00;;
34836;SDS011;21053;50.848;4.652;2022-07-11T13:04:41;3.35;;;2.42;;
34836;SDS011;21053;50.848;4.652;2022-07-11T13:12:42;2.90;;;2.15;;
34836;SDS011;21053;50.848;4.652;2022-07-11T13:15:15;4.95;;;1.92;;
34836;SDS011;21053;50.848;4.652;2022-07-11T13:17:50;5.07;;;2.65;;
34836;SDS011;21053;50.848;4.652;2022-07-11T13:20:21;7.05;;;2.35;;
34836;SDS011;21053;50.848;4.652;2022-07-11T13:25:26;4.38;;;2.30;;
34836;SDS011;21053;50.848;4.652;2022-07-11T13:27:52;4.25;;;2.25;;
34836;SDS011;21053;50.848;4.652;2022-07-11T13:30:22;3.30;;;2.15;;
34836;SDS011;21053;50.848;4.652;2022-07-11T13:32:57;3.47;;;1.90;;
34836;SDS011;21053;50.848;4.652;2022-07-11T13:35:23;5.30;;;2.55;;
34836;SDS011;21053;50.848;4.652;2022-07-11T13:37:51;6.65;;;3.05;;
34836;SDS011;21053;50.848;4.652;2022-07-11T13:42:48;4.47;;;3.30;;
34836;SDS011;21053;50.848;4.652;2022-07-11T13:47:47;8.27;;;3.20;;
34836;SDS011;21053;50.848;4.652;2022-07-11T13:50:17;3.63;;;2.70;;
34836;SDS011;21053;50.848;4.652;2022-07-11T13:52:46;9.25;;;3.30;;
34836;SDS011;21053;50.848;4.652;2022-07-11T13:55:18;5.30;;;3.10;;
34836;SDS011;21053;50.848;4.652;2022-07-11T13:57:52;4.97;;;3.50;;
34836;SDS011;21053;50.848;4.652;2022-07-11T14:00:24;8.10;;;4.30;;
34836;SDS011;21053;50.848;4.652;2022-07-11T14:02:52;5.68;;;3.55;;
34836;SDS011;21053;50.848;4.652;2022-07-11T14:05:18;8.50;;;4.25;;
34836;SDS011;21053;50.848;4.652;2022-07-11T14:07:46;6.20;;;3.55;;
34836;SDS011;21053;50.848;4.652;2022-07-11T14:10:13;5.05;;;3.40;;
34836;SDS011;21053;50.848;4.652;2022-07-11T14:12:41;5.43;;;3.35;;
34836;SDS011;21053;50.848;4.652;2022-07-11T14:17:39;8.15;;;3.83;;
34836;SDS011;21053;50.848;4.652;2022-07-11T14:20:05;3.92;;;3.22;;
34836;SDS011;21053;50.848;4.652;2022-07-11T14:22:35;4.10;;;3.38;;
34836;SDS011;21053;50.848;4.652;2022-07-11T14:25:04;7.75;;;4.07;;
34836;SDS011;21053;50.848;4.652;2022-07-11T14:27:33;3.90;;;3.50;;
34836;SDS011;21053;50.848;4.652;2022-07-11T14:30:03;32.30;;;5.10;;
34836;SDS011;21053;50.848;4.652;2022-07-11T14:32:34;19.98;;;4.88;;
34836;SDS011;21053;50.848;4.652;2022-07-11T14:40:01;5.22;;;3.85;;
34836;SDS011;21053;50.848;4.652;2022-07-11T14:42:33;5.65;;;3.47;;
34836;SDS011;21053;50.848;4.652;2022-07-11T14:45:00;6.47;;;3.40;;
34836;SDS011;21053;50.848;4.652;2022-07-11T14:47:26;3.60;;;3.03;;
34836;SDS011;21053;50.848;4.652;2022-07-11T14:49:54;6.07;;;4.03;;
34836;SDS011;21053;50.848;4.652;2022-07-11T14:52:24;4.47;;;3.58;;
34836;SDS011;21053;50.848;4.652;2022-07-11T14:57:23;6.18;;;3.40;;
34836;SDS011;21053;50.848;4.652;2022-07-11T14:59:53;4.70;;;3.38;;
34836;SDS011;21053;50.848;4.652;2022-07-11T15:05:07;3.85;;;3.20;;
34836;SDS011;21053;50.848;4.652;2022-07-11T15:07:35;11.20;;;3.83;;
34836;SDS011;21053;50.848;4.652;2022-07-11T15:10:20;4.80;;;3.30;;
34836;SDS011;21053;50.848;4.652;2022-07-11T15:13:08;3.50;;;3.00;;
34836;SDS011;21053;50.848;4.652;2022-07-11T15:18:03;8.73;;;3.53;;
34836;SDS011;21053;50.848;4.652;2022-07-11T15:20:31;4.18;;;3.05;;
34836;SDS011;21053;50.848;4.652;2022-07-11T15:22:58;4.35;;;3.08;;
34836;SDS011;21053;50.848;4.652;2022-07-11T15:25:24;5.78;;;3.20;;
34836;SDS011;21053;50.848;4.652;2022-07-11T15:30:20;4.53;;;3.08;;
34836;SDS011;21053;50.848;4.652;2022-07-11T15:32:47;4.57;;;3.33;;
34836;SDS011;21053;50.848;4.652;2022-07-11T15:35:14;4.63;;;3.67;;
34836;SDS011;21053;50.848;4.652;2022-07-11T15:37:41;5.20;;;3.00;;
34836;SDS011;21053;50.848;4.652;2022-07-11T15:40:08;21.95;;;5.30;;
34836;SDS011;21053;50.848;4.652;2022-07-11T15:42:37;20.65;;;6.38;;
34836;SDS011;21053;50.848;4.652;2022-07-11T15:45:05;144.30;;;25.60;;
34836;SDS011;21053;50.848;4.652;2022-07-11T15:50:04;14.05;;;5.20;;
34836;SDS011;21053;50.848;4.652;2022-07-11T15:52:32;4.35;;;2.97;;
34836;SDS011;21053;50.848;4.652;2022-07-11T15:54:58;9.52;;;3.63;;
34836;SDS011;21053;50.848;4.652;2022-07-11T15:57:27;4.47;;;3.05;;
34836;SDS011;21053;50.848;4.652;2022-07-11T15:59:54;3.97;;;2.92;;
34836;SDS011;21053;50.848;4.652;2022-07-11T16:07:20;4.88;;;2.90;;
34836;SDS011;21053;50.848;4.652;2022-07-11T16:09:46;4.43;;;2.85;;
34836;SDS011;21053;50.848;4.652;2022-07-11T16:12:14;9.45;;;2.65;;
34836;SDS011;21053;50.848;4.652;2022-07-11T16:14:40;4.65;;;2.92;;
34836;SDS011;21053;50.848;4.652;2022-07-11T16:17:07;4.38;;;2.70;;
34836;SDS011;21053;50.848;4.652;2022-07-11T16:19:36;6.93;;;2.80;;
34836;SDS011;21053;50.848;4.652;2022-07-11T16:22:03;5.25;;;3.15;;
34836;SDS011;21053;50.848;4.652;2022-07-11T16:24:30;6.35;;;2.88;;
34836;SDS011;21053;50.848;4.652;2022-07-11T16:27:02;3.30;;;2.78;;
34836;SDS011;21053;50.848;4.652;2022-07-11T16:29:28;2.60;;;2.40;;
34836;SDS011;21053;50.848;4.652;2022-07-11T16:31:54;5.18;;;3.00;;
34836;SDS011;21053;50.848;4.652;2022-07-11T16:34:23;3.75;;;2.65;;
34836;SDS011;21053;50.848;4.652;2022-07-11T16:36:49;4.35;;;2.85;;
34836;SDS011;21053;50.848;4.652;2022-07-11T16:39:15;4.72;;;2.85;;
34836;SDS011;21053;50.848;4.652;2022-07-11T16:44:47;5.22;;;3.05;;
34836;SDS011;21053;50.848;4.652;2022-07-11T16:47:16;6.72;;;3.47;;
34836;SDS011;21053;50.848;4.652;2022-07-11T16:49:43;4.47;;;3.35;;
34836;SDS011;21053;50.848;4.652;2022-07-11T16:52:11;6.22;;;3.33;;
34836;SDS011;21053;50.848;4.652;2022-07-11T16:54:40;6.63;;;3.28;;
34836;SDS011;21053;50.848;4.652;2022-07-11T16:57:06;3.40;;;2.83;;
34836;SDS011;21053;50.848;4.652;2022-07-11T16:59:33;6.32;;;3.38;;
34836;SDS011;21053;50.848;4.652;2022-07-11T17:01:58;3.70;;;3.05;;
34836;SDS011;21053;50.848;4.652;2022-07-11T17:06:55;4.00;;;2.90;;
34836;SDS011;21053;50.848;4.652;2022-07-11T17:09:22;6.38;;;3.17;;
34836;SDS011;21053;50.848;4.652;2022-07-11T17:11:54;4.00;;;3.25;;
34836;SDS011;21053;50.848;4.652;2022-07-11T17:14:24;4.38;;;3.22;;
34836;SDS011;21053;50.848;4.652;2022-07-11T17:16:50;4.88;;;3.03;;
34836;SDS011;21053;50.848;4.652;2022-07-11T17:19:17;5.60;;;2.80;;
34836;SDS011;21053;50.848;4.652;2022-07-11T17:21:47;5.65;;;2.83;;
34836;SDS011;21053;50.848;4.652;2022-07-11T17:24:15;4.95;;;2.80;;
34836;SDS011;21053;50.848;4.652;2022-07-11T17:26:44;5.13;;;2.72;;
34836;SDS011;21053;50.848;4.652;2022-07-11T17:29:10;4.55;;;2.55;;
34836;SDS011;21053;50.848;4.652;2022-07-11T17:31:39;2.85;;;2.60;;
34836;SDS011;21053;50.848;4.652;2022-07-11T17:34:10;4.25;;;2.55;;
34836;SDS011;21053;50.848;4.652;2022-07-11T17:36:42;4.70;;;2.47;;
34836;SDS011;21053;50.848;4.652;2022-07-11T17:39:11;4.22;;;2.60;;
34836;SDS011;21053;50.848;4.652;2022-07-11T17:44:06;5.72;;;2.60;;
34836;SDS011;21053;50.848;4.652;2022-07-11T17:46:32;2.72;;;2.45;;
34836;SDS011;21053;50.848;4.652;2022-07-11T17:48:58;5.38;;;2.50;;
34836;SDS011;21053;50.848;4.652;2022-07-11T17:51:24;13.73;;;2.30;;
34836;SDS011;21053;50.848;4.652;2022-07-11T17:53:50;6.75;;;2.50;;
34836;SDS011;21053;50.848;4.652;2022-07-11T17:58:46;2.97;;;2.03;;
34836;SDS011;21053;50.848;4.652;2022-07-11T18:01:13;9.70;;;2.95;;
34836;SDS011;21053;50.848;4.652;2022-07-11T18:03:39;5.05;;;1.90;;
34836;SDS011;21053;50.848;4.652;2022-07-11T18:06:05;2.78;;;2.33;;
34836;SDS011;21053;50.848;4.652;2022-07-11T18:11:00;4.40;;;2.10;;
34836;SDS011;21053;50.848;4.652;2022-07-11T18:13:27;4.72;;;2.45;;
34836;SDS011;21053;50.848;4.652;2022-07-11T18:15:53;4.07;;;1.92;;
34836;SDS011;21053;50.848;4.652;2022-07-11T18:18:21;3.83;;;2.20;;
34836;SDS011;21053;50.848;4.652;2022-07-11T18:20:48;4.90;;;2.20;;
34836;SDS011;21053;50.848;4.652;2022-07-11T18:23:14;4.65;;;2.80;;
34836;SDS011;21053;50.848;4.652;2022-07-11T18:25:41;3.35;;;2.20;;